Prudhoe Bay, Alaska
Current Conditions -  °F | °C
As of 3:53 PM on Monday 20 Oct 2014 (Local Time) from PASC Reporting Station
Blowing Snow Blowing Snow  
Wind Chill: -14°   Ceiling: 1900
Heat Index: -3°   Visibility: 10mi
Dew Point: -7°   Wind: 40mph
Humidity: 78%   Direction: 70°ENE
Pressure: 29.66"   Gusts: 52mph
Location:  70.28°N, 148.38°W
Report Text: PASC 202353Z 07035G45KT 10SM BLSN OVC019 M03/M07 A2966 RMK AO2 PK WND 08046/2316 SLP045 60000 I6000 T10331067 11028 21033 50003
Loading
Personal Weather Stations






























Interactive Weather Map
Tropical Storm Tracking
New forecast layout! Learn more

10-Day Weather Forecast

Advertisements
Track Severe Weather on mobile